createdAt,value
2023-03-12T00:00:15.787Z,46.82
2023-03-12T00:02:44.508Z,46.90
2023-03-12T00:05:12.662Z,47.77
2023-03-12T00:07:40.600Z,47.44
2023-03-12T00:10:11.466Z,47.18
2023-03-12T00:12:39.267Z,46.83
2023-03-12T00:15:08.298Z,46.46
2023-03-12T00:17:36.391Z,46.10
2023-03-12T00:20:06.704Z,46.79
2023-03-12T00:22:34.848Z,47.05
2023-03-12T00:25:03.576Z,46.28
2023-03-12T00:27:32.903Z,46.14
2023-03-12T00:30:00.717Z,46.72
2023-03-12T00:32:28.496Z,46.62
2023-03-12T00:34:57.372Z,46.85
2023-03-12T00:37:25.236Z,46.86
2023-03-12T00:39:53.206Z,46.92
2023-03-12T00:42:22.147Z,46.88
2023-03-12T00:44:51.263Z,47.79
2023-03-12T00:47:19.114Z,47.75
2023-03-12T00:49:47.120Z,46.94
2023-03-12T00:52:15.324Z,46.87
2023-03-12T00:54:43.344Z,46.74
2023-03-12T00:57:11.282Z,47.29
2023-03-12T00:59:40.488Z,47.09
2023-03-12T01:02:10.354Z,47.21
2023-03-12T01:04:38.147Z,46.79
2023-03-12T01:07:06.261Z,47.49
2023-03-12T01:09:34.463Z,47.15
2023-03-12T01:12:02.392Z,47.36
2023-03-12T01:14:30.364Z,46.83
2023-03-12T01:16:58.200Z,47.22
2023-03-12T01:19:27.395Z,47.23
2023-03-12T01:21:55.144Z,47.11
2023-03-12T01:24:23.072Z,47.58
2023-03-12T01:26:50.862Z,47.02
2023-03-12T01:29:18.761Z,46.78
2023-03-12T01:31:46.571Z,46.50
2023-03-12T01:34:14.599Z,46.84
2023-03-12T01:36:45.040Z,46.47
2023-03-12T01:39:13.180Z,46.46
2023-03-12T01:41:42.289Z,47.08
2023-03-12T01:44:15.226Z,46.72
2023-03-12T01:46:45.667Z,47.14
2023-03-12T01:49:20.314Z,47.49
2023-03-12T01:51:53.556Z,47.80
2023-03-12T01:54:24.888Z,47.05
2023-03-12T01:56:53.540Z,48.04
2023-03-12T01:59:26.318Z,47.15
2023-03-12T02:01:54.490Z,46.98
2023-03-12T02:04:25.258Z,47.27
2023-03-12T02:07:00.415Z,47.08
2023-03-12T02:09:28.335Z,47.61
2023-03-12T02:11:56.286Z,47.52
2023-03-12T02:14:24.218Z,48.06
2023-03-12T02:16:53.135Z,47.13
2023-03-12T02:19:27.047Z,46.91
2023-03-12T02:21:56.767Z,47.11
2023-03-12T02:24:32.840Z,46.62
2023-03-12T02:27:03.508Z,46.89
2023-03-12T02:29:34.230Z,46.96
2023-03-12T02:32:04.220Z,46.10
2023-03-12T02:34:32.121Z,46.12
2023-03-12T02:36:59.910Z,45.99
2023-03-12T02:39:28.471Z,45.84
2023-03-12T02:41:58.699Z,45.96
2023-03-12T02:44:31.223Z,46.04
2023-03-12T02:47:01.197Z,45.96
2023-03-12T02:49:30.972Z,45.82
2023-03-12T02:52:00.347Z,45.44
2023-03-12T02:54:29.124Z,45.20
2023-03-12T02:56:57.628Z,44.97
2023-03-12T02:59:28.202Z,45.63
2023-03-12T03:02:00.337Z,45.39
2023-03-12T03:04:29.193Z,45.36
2023-03-12T03:06:57.287Z,45.21
2023-03-12T03:09:25.993Z,44.87
2023-03-12T03:11:54.310Z,45.83
2023-03-12T03:14:23.912Z,45.46
2023-03-12T03:16:53.756Z,45.75
2023-03-12T03:19:23.591Z,45.91
2023-03-12T03:21:51.466Z,45.61
2023-03-12T03:24:19.294Z,45.59
2023-03-12T03:26:47.062Z,46.00
2023-03-12T03:29:15.269Z,46.17
2023-03-12T03:31:43.138Z,46.32
2023-03-12T03:34:12.525Z,46.18
2023-03-12T03:36:40.314Z,46.35
2023-03-12T03:39:12.512Z,46.19
2023-03-12T03:41:40.863Z,46.22
2023-03-12T03:44:09.040Z,46.40
2023-03-12T03:46:38.809Z,46.25
2023-03-12T03:49:09.761Z,46.41
2023-03-12T03:51:42.612Z,46.53
2023-03-12T03:54:12.818Z,46.87
2023-03-12T03:56:42.180Z,47.03
2023-03-12T03:59:11.003Z,46.43
2023-03-12T04:01:40.535Z,46.68
2023-03-12T04:04:08.358Z,46.97
2023-03-12T04:06:37.293Z,46.68
2023-03-12T04:09:06.966Z,47.33
2023-03-12T04:11:36.753Z,47.09
2023-03-12T04:14:05.897Z,46.65
2023-03-12T04:16:35.347Z,46.46
2023-03-12T04:19:04.073Z,46.50
2023-03-12T04:21:32.060Z,46.33
2023-03-12T04:24:00.032Z,46.04
2023-03-12T04:26:33.270Z,46.11
2023-03-12T04:29:02.044Z,46.38
2023-03-12T04:31:30.975Z,46.34
2023-03-12T04:33:58.779Z,46.69
2023-03-12T04:36:26.643Z,46.60
2023-03-12T04:38:56.510Z,47.43
2023-03-12T04:41:28.832Z,47.17
2023-03-12T04:44:06.247Z,46.99
2023-03-12T04:46:35.704Z,46.40
2023-03-12T04:49:03.636Z,46.59
2023-03-12T04:51:33.432Z,46.74
2023-03-12T04:54:03.373Z,47.15
2023-03-12T04:56:31.290Z,47.17
2023-03-12T04:58:59.556Z,47.56
2023-03-12T05:01:32.412Z,47.19
2023-03-12T05:04:02.871Z,47.13
2023-03-12T05:06:30.943Z,46.57
2023-03-12T05:08:58.835Z,47.46
2023-03-12T05:11:26.772Z,47.44
2023-03-12T05:13:55.111Z,47.21
2023-03-12T05:16:24.562Z,47.50
2023-03-12T05:18:53.832Z,47.31
2023-03-12T05:21:23.694Z,47.16
2023-03-12T05:23:55.533Z,47.07
2023-03-12T05:26:27.927Z,47.28
2023-03-12T05:29:02.631Z,47.19
2023-03-12T05:31:33.050Z,46.85
2023-03-12T05:34:03.128Z,47.10
2023-03-12T05:36:31.763Z,46.61
2023-03-12T05:39:00.695Z,46.01
2023-03-12T05:41:32.054Z,46.13
2023-03-12T05:44:06.411Z,45.82
2023-03-12T05:46:34.231Z,46.65
2023-03-12T05:49:03.345Z,46.81
2023-03-12T05:51:33.073Z,46.75
2023-03-12T05:54:01.268Z,46.23
2023-03-12T05:56:29.599Z,46.60
2023-03-12T05:58:57.776Z,46.54
2023-03-12T06:01:28.915Z,45.95
2023-03-12T06:03:59.423Z,45.38
2023-03-12T06:06:31.159Z,46.36
2023-03-12T06:08:59.186Z,45.63
2023-03-12T06:11:26.992Z,45.82
2023-03-12T06:13:55.229Z,45.50
2023-03-12T06:16:25.714Z,45.41
2023-03-12T06:18:54.455Z,45.90
2023-03-12T06:21:23.925Z,45.36
2023-03-12T06:23:53.105Z,45.98
2023-03-12T06:26:26.577Z,45.94
2023-03-12T06:28:54.749Z,46.01
2023-03-12T06:31:23.324Z,46.70
2023-03-12T06:33:51.584Z,46.51
2023-03-12T06:36:19.392Z,46.56
2023-03-12T06:38:47.142Z,47.48
2023-03-12T06:41:18.954Z,47.34
2023-03-12T06:43:47.005Z,46.12
2023-03-12T06:46:16.959Z,47.06
2023-03-12T06:48:46.452Z,45.69
2023-03-12T06:51:16.213Z,47.41
2023-03-12T06:53:44.791Z,47.74
2023-03-12T06:56:13.175Z,48.56
2023-03-12T06:58:42.601Z,49.07
2023-03-12T07:01:10.571Z,50.04
2023-03-12T07:03:38.495Z,50.44
2023-03-12T07:06:13.536Z,50.00
2023-03-12T07:08:41.334Z,50.55
2023-03-12T07:11:09.105Z,49.84
2023-03-12T07:13:36.892Z,51.32
2023-03-12T07:16:07.357Z,51.97
2023-03-12T07:18:35.620Z,50.99
2023-03-12T07:21:03.709Z,52.17
2023-03-12T07:23:31.524Z,52.79
2023-03-12T07:25:59.308Z,52.78
2023-03-12T07:28:27.097Z,53.94
2023-03-12T07:31:00.526Z,53.87
2023-03-12T07:33:29.842Z,54.07
2023-03-12T07:35:57.747Z,53.23
2023-03-12T07:38:25.783Z,54.37
2023-03-12T07:40:54.787Z,55.67
2023-03-12T07:43:23.139Z,56.04
2023-03-12T07:45:54.165Z,56.12
2023-03-12T07:48:22.087Z,56.18
2023-03-12T07:50:51.295Z,55.61
2023-03-12T07:53:19.142Z,56.05
2023-03-12T07:55:48.525Z,56.83
2023-03-12T07:58:17.188Z,59.00
2023-03-12T08:00:45.802Z,60.24
2023-03-12T08:03:13.995Z,62.22
2023-03-12T08:05:42.029Z,62.46
2023-03-12T08:08:11.449Z,62.86
2023-03-12T08:10:39.275Z,63.29
2023-03-12T08:13:07.108Z,63.37
2023-03-12T08:15:34.909Z,64.80
2023-03-12T08:18:02.721Z,65.58
2023-03-12T08:20:30.531Z,64.73
2023-03-12T08:22:58.324Z,64.63
2023-03-12T08:25:27.643Z,63.50
2023-03-12T08:27:55.438Z,64.80
2023-03-12T08:30:23.502Z,63.74
2023-03-12T08:32:51.343Z,63.76
2023-03-12T08:35:19.244Z,62.87
2023-03-12T08:37:47.025Z,62.57
2023-03-12T08:40:15.102Z,62.16
2023-03-12T08:42:46.074Z,62.28
2023-03-12T08:45:15.757Z,61.84
2023-03-12T08:47:44.334Z,62.73
2023-03-12T08:50:13.977Z,63.86
2023-03-12T08:52:41.935Z,62.34
2023-03-12T08:55:10.445Z,63.56
2023-03-12T08:57:38.504Z,62.34
2023-03-12T09:00:13.951Z,62.15
2023-03-12T09:02:44.086Z,64.10
2023-03-12T09:05:12.203Z,63.33
2023-03-12T09:07:40.228Z,63.23
2023-03-12T09:10:08.670Z,63.13
2023-03-12T09:12:36.420Z,62.56
2023-03-12T09:15:05.342Z,61.70
2023-03-12T09:17:34.522Z,62.36
2023-03-12T09:20:02.277Z,61.67
2023-03-12T09:22:30.489Z,62.21
2023-03-12T09:24:58.301Z,61.35
2023-03-12T09:27:26.150Z,59.62
2023-03-12T09:30:00.560Z,62.44
2023-03-12T09:32:31.341Z,62.48
2023-03-12T09:35:00.545Z,61.63
2023-03-12T09:37:28.359Z,63.70
2023-03-12T09:39:56.286Z,64.05
2023-03-12T09:42:25.999Z,61.98
2023-03-12T09:44:56.011Z,61.77
2023-03-12T09:47:29.735Z,61.64
2023-03-12T09:50:05.711Z,61.78
2023-03-12T09:52:37.028Z,61.45
2023-03-12T09:55:12.494Z,62.07
2023-03-12T09:57:40.349Z,62.00
2023-03-12T10:00:13.699Z,63.08
2023-03-12T10:02:53.660Z,62.69
2023-03-12T10:05:27.558Z,63.08
2023-03-12T10:08:10.522Z,64.16
2023-03-12T10:10:54.947Z,64.33
2023-03-12T10:13:55.808Z,64.99
2023-03-12T10:16:37.547Z,64.11
2023-03-12T10:19:20.257Z,63.91
2023-03-12T10:21:56.825Z,64.56
2023-03-12T10:24:37.427Z,66.11
2023-03-12T10:27:12.830Z,65.67
2023-03-12T10:29:44.786Z,66.21
2023-03-12T10:32:18.733Z,69.36
2023-03-12T10:34:50.014Z,69.95
2023-03-12T10:37:23.981Z,70.21
2023-03-12T10:39:54.049Z,71.08
2023-03-12T10:42:24.200Z,72.76
2023-03-12T10:44:56.089Z,68.38
2023-03-12T10:47:34.754Z,70.53
2023-03-12T10:50:15.647Z,72.63
2023-03-12T10:52:46.121Z,74.17
2023-03-12T10:55:22.409Z,73.66
2023-03-12T10:57:51.482Z,73.70
2023-03-12T11:00:22.027Z,72.74
2023-03-12T11:03:00.122Z,71.92
2023-03-12T11:05:31.214Z,71.99
2023-03-12T11:08:01.971Z,72.52
2023-03-12T11:10:43.141Z,71.09
2023-03-12T11:13:26.370Z,69.93
2023-03-12T11:15:55.066Z,71.60
2023-03-12T11:18:30.370Z,72.91
2023-03-12T11:21:12.683Z,71.38
2023-03-12T11:23:43.880Z,72.47
2023-03-12T11:26:16.893Z,70.26
2023-03-12T11:28:47.490Z,71.38
2023-03-12T11:31:23.117Z,72.94
2023-03-12T11:33:53.158Z,72.52
2023-03-12T11:36:32.487Z,73.34
2023-03-12T11:39:06.723Z,72.72
2023-03-12T11:41:53.148Z,73.58
2023-03-12T11:44:28.946Z,74.63
2023-03-12T11:47:10.692Z,72.91
2023-03-12T11:49:58.164Z,74.66
2023-03-12T11:52:38.678Z,72.58
2023-03-12T11:55:31.723Z,74.15
2023-03-12T11:58:18.409Z,73.48
2023-03-12T12:00:52.810Z,74.95
2023-03-12T12:03:36.028Z,74.31
2023-03-12T12:06:08.648Z,74.40
2023-03-12T12:08:54.118Z,76.11
2023-03-12T12:11:29.175Z,74.30
2023-03-12T12:14:13.467Z,73.67
2023-03-12T12:16:55.699Z,73.39
2023-03-12T12:19:37.608Z,72.44
2023-03-12T12:22:24.165Z,73.52
2023-03-12T12:25:13.598Z,73.08
2023-03-12T12:27:50.379Z,74.69
2023-03-12T12:30:28.587Z,74.49
2023-03-12T12:33:15.535Z,71.43
2023-03-12T12:35:44.351Z,70.89
2023-03-12T12:38:17.522Z,70.91
2023-03-12T12:40:50.231Z,69.97
2023-03-12T12:43:29.254Z,71.97
2023-03-12T12:46:01.356Z,70.74
2023-03-12T12:48:34.945Z,72.37
2023-03-12T12:51:05.220Z,74.70
2023-03-12T12:53:41.901Z,73.77
2023-03-12T12:56:16.405Z,72.33
2023-03-12T12:59:03.992Z,72.64
2023-03-12T13:01:33.408Z,73.02
2023-03-12T13:04:06.955Z,71.95
2023-03-12T13:06:59.669Z,70.59
2023-03-12T13:09:40.136Z,71.73
2023-03-12T13:12:14.260Z,71.27
2023-03-12T13:14:45.112Z,71.48
2023-03-12T13:17:26.545Z,73.31
2023-03-12T13:20:01.695Z,73.82
2023-03-12T13:22:57.170Z,73.20
2023-03-12T13:25:42.857Z,73.31
2023-03-12T13:28:32.679Z,74.41
2023-03-12T13:31:02.529Z,72.72
2023-03-12T13:33:45.456Z,71.16
2023-03-12T13:36:24.526Z,69.38
2023-03-12T13:38:58.791Z,68.87
2023-03-12T13:41:36.422Z,67.82
2023-03-12T13:44:37.815Z,69.62
2023-03-12T13:47:22.981Z,65.64
2023-03-12T13:49:56.175Z,66.24
2023-03-12T13:52:26.104Z,66.83
2023-03-12T13:55:02.956Z,66.94
2023-03-12T13:57:38.919Z,67.70
2023-03-12T14:00:16.328Z,67.05
2023-03-12T14:02:50.760Z,65.29
2023-03-12T14:05:21.445Z,67.03
2023-03-12T14:08:11.858Z,65.91
2023-03-12T14:10:50.954Z,60.27
2023-03-12T14:13:32.964Z,60.57
2023-03-12T14:16:06.973Z,62.93
2023-03-12T14:18:38.394Z,65.42
2023-03-12T14:21:10.379Z,65.53
2023-03-12T14:23:41.825Z,65.89
2023-03-12T14:26:18.402Z,64.64
2023-03-12T14:28:48.063Z,64.03
2023-03-12T14:31:22.758Z,63.57
2023-03-12T14:33:57.062Z,64.37
2023-03-12T14:36:28.027Z,63.94
2023-03-12T14:39:01.914Z,62.16
2023-03-12T14:41:33.428Z,63.57
2023-03-12T14:44:06.740Z,64.77
2023-03-12T14:46:34.752Z,64.08
2023-03-12T14:49:04.313Z,63.31
2023-03-12T14:51:37.208Z,64.23
2023-03-12T14:54:05.196Z,62.81
2023-03-12T14:56:35.254Z,60.64
2023-03-12T14:59:21.169Z,61.07
2023-03-12T15:01:49.164Z,62.34
2023-03-12T15:04:21.598Z,62.08
2023-03-12T15:06:51.607Z,62.04
2023-03-12T15:09:22.034Z,62.46
2023-03-12T15:11:55.479Z,62.32
2023-03-12T15:14:24.857Z,61.00
2023-03-12T15:16:53.930Z,62.03
2023-03-12T15:19:27.415Z,61.83
2023-03-12T15:21:55.683Z,61.81
2023-03-12T15:24:23.924Z,63.61
2023-03-12T15:26:51.752Z,65.01
2023-03-12T15:29:27.199Z,64.28
2023-03-12T15:31:56.943Z,63.77
2023-03-12T15:34:33.072Z,63.32
2023-03-12T15:37:02.826Z,63.17
2023-03-12T15:39:32.991Z,63.23
2023-03-12T15:42:09.720Z,62.17
2023-03-12T15:44:45.669Z,62.75
2023-03-12T15:47:16.186Z,64.83
2023-03-12T15:49:52.881Z,64.32
2023-03-12T15:52:32.450Z,64.35
2023-03-12T15:55:03.028Z,63.92
2023-03-12T15:57:31.894Z,64.34
2023-03-12T16:00:25.409Z,63.27
2023-03-12T16:02:58.473Z,61.48
2023-03-12T16:05:30.788Z,62.35
2023-03-12T16:08:00.975Z,61.46
2023-03-12T16:10:29.592Z,61.61
2023-03-12T16:13:03.760Z,61.83
2023-03-12T16:15:34.288Z,61.29
2023-03-12T16:18:02.147Z,60.00
2023-03-12T16:20:31.559Z,59.21
2023-03-12T16:22:59.293Z,58.66
2023-03-12T16:25:27.827Z,58.99
2023-03-12T16:27:58.223Z,58.16
2023-03-12T16:30:29.062Z,58.34
2023-03-12T16:32:58.180Z,58.61
2023-03-12T16:35:27.623Z,58.68
2023-03-12T16:37:56.974Z,57.93
2023-03-12T16:40:33.346Z,58.36
2023-03-12T16:43:02.716Z,56.58
2023-03-12T16:45:31.989Z,56.80
2023-03-12T16:48:01.592Z,56.68
2023-03-12T16:50:29.463Z,56.19
2023-03-12T16:52:59.786Z,55.71
2023-03-12T16:55:30.679Z,56.29
2023-03-12T16:58:01.671Z,55.79
2023-03-12T17:00:31.822Z,55.30
2023-03-12T17:02:59.782Z,55.60
2023-03-12T17:05:29.001Z,55.32
2023-03-12T17:07:59.418Z,54.77
2023-03-12T17:10:27.578Z,56.10
2023-03-12T17:12:56.783Z,55.33
2023-03-12T17:15:26.894Z,55.46
2023-03-12T17:17:55.951Z,52.32
2023-03-12T17:20:25.084Z,52.44
2023-03-12T17:22:53.101Z,53.06
2023-03-12T17:25:25.999Z,53.48
2023-03-12T17:27:53.915Z,53.91
2023-03-12T17:30:22.074Z,54.05
2023-03-12T17:32:50.851Z,54.73
2023-03-12T17:35:19.228Z,54.61
2023-03-12T17:37:48.428Z,54.01
2023-03-12T17:40:16.897Z,54.24
2023-03-12T17:42:46.157Z,53.87
2023-03-12T17:45:14.024Z,53.16
2023-03-12T17:47:41.772Z,52.14
2023-03-12T17:50:10.902Z,52.99
2023-03-12T17:52:38.881Z,53.26
2023-03-12T17:55:11.080Z,52.74
2023-03-12T17:57:39.899Z,52.50
2023-03-12T18:00:12.935Z,53.01
2023-03-12T18:02:41.940Z,52.64
2023-03-12T18:05:11.334Z,52.40
2023-03-12T18:07:39.666Z,53.09
2023-03-12T18:10:11.029Z,52.88
2023-03-12T18:12:40.139Z,52.93
2023-03-12T18:15:12.509Z,53.07
2023-03-12T18:17:40.710Z,52.96
2023-03-12T18:20:13.369Z,52.87
2023-03-12T18:22:41.554Z,53.45
2023-03-12T18:25:10.398Z,53.68
2023-03-12T18:27:38.176Z,53.05
2023-03-12T18:30:08.215Z,54.59
2023-03-12T18:32:37.463Z,54.04
2023-03-12T18:35:06.315Z,53.45
2023-03-12T18:37:34.433Z,54.84
2023-03-12T18:40:02.327Z,55.39
2023-03-12T18:42:30.448Z,55.44
2023-03-12T18:44:58.158Z,54.33
2023-03-12T18:47:26.017Z,53.94
2023-03-12T18:49:55.872Z,54.31
2023-03-12T18:52:24.081Z,54.56
2023-03-12T18:54:51.927Z,55.10
2023-03-12T18:57:19.706Z,55.20
2023-03-12T18:59:47.477Z,55.45
2023-03-12T19:02:15.498Z,55.29
2023-03-12T19:04:43.410Z,55.23
2023-03-12T19:07:12.589Z,54.73
2023-03-12T19:09:40.354Z,55.17
2023-03-12T19:12:08.378Z,54.31
2023-03-12T19:14:36.177Z,53.95
2023-03-12T19:17:04.043Z,54.87
2023-03-12T19:19:31.803Z,55.32
2023-03-12T19:21:59.551Z,55.48
2023-03-12T19:24:28.749Z,55.83
2023-03-12T19:26:56.880Z,55.16
2023-03-12T19:29:24.666Z,55.88
2023-03-12T19:31:52.561Z,56.52
2023-03-12T19:34:21.914Z,56.42
2023-03-12T19:36:49.775Z,56.35
2023-03-12T19:39:21.694Z,55.73
2023-03-12T19:41:54.438Z,57.24
2023-03-12T19:44:22.287Z,57.61
2023-03-12T19:46:50.056Z,57.22
2023-03-12T19:49:17.811Z,57.22
2023-03-12T19:51:45.573Z,56.84
2023-03-12T19:54:13.306Z,56.92
2023-03-12T19:56:41.350Z,57.12
2023-03-12T19:59:10.598Z,56.84
2023-03-12T20:01:40.918Z,56.94
2023-03-12T20:04:08.807Z,56.44
2023-03-12T20:06:36.647Z,56.13
2023-03-12T20:09:05.314Z,55.75
2023-03-12T20:11:33.511Z,56.50
2023-03-12T20:14:01.334Z,56.75
2023-03-12T20:16:30.493Z,56.07
2023-03-12T20:18:58.490Z,55.07
2023-03-12T20:21:27.290Z,55.38
2023-03-12T20:23:56.502Z,56.54
2023-03-12T20:26:24.334Z,56.49
2023-03-12T20:28:52.203Z,55.94
2023-03-12T20:31:20.343Z,55.96
2023-03-12T20:33:49.560Z,57.33
2023-03-12T20:36:17.325Z,56.26
2023-03-12T20:38:45.326Z,55.20
2023-03-12T20:41:14.411Z,55.57
2023-03-12T20:43:42.629Z,55.39
2023-03-12T20:46:10.889Z,55.79
2023-03-12T20:48:38.846Z,55.63
2023-03-12T20:51:08.151Z,56.65
2023-03-12T20:53:36.048Z,55.09
2023-03-12T20:56:06.547Z,55.04
2023-03-12T20:58:34.937Z,56.03
2023-03-12T21:01:03.387Z,56.31
2023-03-12T21:03:31.331Z,55.44
2023-03-12T21:06:00.798Z,54.54
2023-03-12T21:08:31.089Z,54.20
2023-03-12T21:10:58.847Z,55.04
2023-03-12T21:13:27.403Z,55.80
2023-03-12T21:15:55.165Z,55.56
2023-03-12T21:18:23.831Z,54.51
2023-03-12T21:20:52.181Z,54.68
2023-03-12T21:23:20.123Z,53.95
2023-03-12T21:25:49.395Z,55.02
2023-03-12T21:28:18.185Z,54.17
2023-03-12T21:30:46.105Z,53.97
2023-03-12T21:33:13.993Z,53.89
2023-03-12T21:35:44.566Z,54.04
2023-03-12T21:38:12.523Z,54.77
2023-03-12T21:40:40.406Z,54.85
2023-03-12T21:43:09.670Z,55.06
2023-03-12T21:45:37.479Z,54.35
2023-03-12T21:48:05.763Z,55.57
2023-03-12T21:50:33.551Z,55.26
2023-03-12T21:53:02.428Z,55.12
2023-03-12T21:55:31.417Z,55.07
2023-03-12T21:57:59.188Z,55.48
2023-03-12T22:00:28.423Z,54.38
2023-03-12T22:02:56.185Z,54.29
2023-03-12T22:05:24.325Z,54.91
2023-03-12T22:07:52.173Z,54.22
2023-03-12T22:10:20.127Z,54.27
2023-03-12T22:12:47.921Z,55.75
2023-03-12T22:15:17.091Z,54.68
2023-03-12T22:17:46.221Z,55.04
2023-03-12T22:20:14.307Z,54.09
2023-03-12T22:22:42.079Z,54.76
2023-03-12T22:25:10.455Z,54.44
2023-03-12T22:27:38.249Z,53.65
2023-03-12T22:30:07.221Z,54.10
2023-03-12T22:32:35.134Z,52.93
2023-03-12T22:35:04.564Z,55.03
2023-03-12T22:37:32.394Z,54.76
2023-03-12T22:40:06.738Z,54.71
2023-03-12T22:42:34.714Z,53.15
2023-03-12T22:45:02.502Z,53.19
2023-03-12T22:47:30.454Z,55.03
2023-03-12T22:49:58.466Z,55.32
2023-03-12T22:52:27.594Z,55.79
2023-03-12T22:54:55.315Z,55.34
2023-03-12T22:57:23.164Z,54.89
2023-03-12T22:59:50.859Z,54.73
2023-03-12T23:02:18.802Z,55.56
2023-03-12T23:04:46.566Z,54.95
2023-03-12T23:07:17.377Z,54.86
2023-03-12T23:09:48.278Z,55.57
2023-03-12T23:12:16.079Z,55.87
2023-03-12T23:14:43.858Z,55.75
2023-03-12T23:17:11.761Z,51.54
2023-03-12T23:19:39.671Z,53.42
2023-03-12T23:22:08.140Z,55.90
2023-03-12T23:24:35.934Z,54.67
2023-03-12T23:27:06.146Z,54.64
2023-03-12T23:29:34.876Z,56.01
2023-03-12T23:32:03.049Z,56.01
2023-03-12T23:34:30.843Z,57.31
2023-03-12T23:36:58.827Z,55.73
2023-03-12T23:39:26.594Z,56.50
2023-03-12T23:41:56.247Z,56.11
2023-03-12T23:44:25.613Z,56.94
2023-03-12T23:46:53.345Z,56.47
2023-03-12T23:49:21.114Z,56.91
2023-03-12T23:51:48.834Z,56.17
2023-03-12T23:54:16.585Z,56.79
2023-03-12T23:56:44.372Z,56.79
2023-03-12T23:59:12.121Z,56.92
